sensor_id;sensor_type;location;lat;lon;timestamp;pressure;altitude;pressure_sealevel;temperature;humidity
60345;BME280;46188;52.324;8.032;2022-08-01T00:00:12;100351.25;;;19.07;100.00
60345;BME280;46188;52.324;8.032;2022-08-01T00:02:38;100353.88;;;19.09;100.00
60345;BME280;46188;52.324;8.032;2022-08-01T00:05:04;100359.19;;;19.10;100.00
60345;BME280;46188;52.324;8.032;2022-08-01T00:07:32;100357.44;;;19.09;100.00
60345;BME280;46188;52.324;8.032;2022-08-01T00:09:57;100361.97;;;19.06;100.00
60345;BME280;46188;52.324;8.032;2022-08-01T00:12:23;100356.69;;;19.04;100.00
60345;BME280;46188;52.324;8.032;2022-08-01T00:14:48;100358.50;;;19.02;100.00
60345;BME280;46188;52.324;8.032;2022-08-01T00:17:14;100357.66;;;19.02;100.00
60345;BME280;46188;52.324;8.032;2022-08-01T00:19:39;100366.50;;;19.04;100.00
60345;BME280;46188;52.324;8.032;2022-08-01T00:22:05;100359.38;;;19.03;100.00
60345;BME280;46188;52.324;8.032;2022-08-01T00:24:30;100361.22;;;19.01;100.00
60345;BME280;46188;52.324;8.032;2022-08-01T00:26:56;100362.19;;;18.96;100.00
60345;BME280;46188;52.324;8.032;2022-08-01T00:29:21;100369.28;;;18.99;100.00
60345;BME280;46188;52.324;8.032;2022-08-01T00:31:47;100367.66;;;18.93;100.00
60345;BME280;46188;52.324;8.032;2022-08-01T00:34:12;100377.44;;;18.93;100.00
60345;BME280;46188;52.324;8.032;2022-08-01T00:36:38;100377.44;;;18.93;100.00
60345;BME280;46188;52.324;8.032;2022-08-01T00:39:04;100369.47;;;18.91;100.00
60345;BME280;46188;52.324;8.032;2022-08-01T00:41:29;100367.69;;;18.92;100.00
60345;BME280;46188;52.324;8.032;2022-08-01T00:43:55;100373.94;;;18.91;100.00
60345;BME280;46188;52.324;8.032;2022-08-01T00:46:20;100382.00;;;18.88;100.00
60345;BME280;46188;52.324;8.032;2022-08-01T00:48:46;100381.13;;;18.89;100.00
60345;BME280;46188;52.324;8.032;2022-08-01T00:51:12;100378.44;;;18.89;100.00
60345;BME280;46188;52.324;8.032;2022-08-01T00:53:38;100374.94;;;18.87;100.00
60345;BME280;46188;52.324;8.032;2022-08-01T00:56:04;100382.00;;;18.88;100.00
60345;BME280;46188;52.324;8.032;2022-08-01T00:58:31;100366.94;;;18.87;100.00
60345;BME280;46188;52.324;8.032;2022-08-01T01:00:58;100377.69;;;18.84;100.00
60345;BME280;46188;52.324;8.032;2022-08-01T01:03:24;100381.22;;;18.83;100.00
60345;BME280;46188;52.324;8.032;2022-08-01T01:06:26;100383.06;;;18.80;100.00
60345;BME280;46188;52.324;8.032;2022-08-01T01:11:26;100380.44;;;18.79;100.00
60345;BME280;46188;52.324;8.032;2022-08-01T01:14:00;100386.72;;;18.76;100.00
60345;BME280;46188;52.324;8.032;2022-08-01T01:16:29;100383.19;;;18.74;100.00
60345;BME280;46188;52.324;8.032;2022-08-01T01:19:00;100390.38;;;18.72;100.00
60345;BME280;46188;52.324;8.032;2022-08-01T01:24:38;100391.34;;;18.68;100.00
60345;BME280;46188;52.324;8.032;2022-08-01T01:29:45;100396.91;;;18.60;100.00
60345;BME280;46188;52.324;8.032;2022-08-01T01:32:48;100387.97;;;18.60;100.00
60345;BME280;46188;52.324;8.032;2022-08-01T01:35:24;100391.59;;;18.59;100.00
60345;BME280;46188;52.324;8.032;2022-08-01T01:37:56;100397.00;;;18.56;100.00
60345;BME280;46188;52.324;8.032;2022-08-01T01:40:24;100399.63;;;18.57;100.00
60345;BME280;46188;52.324;8.032;2022-08-01T01:42:51;100393.44;;;18.55;100.00
60345;BME280;46188;52.324;8.032;2022-08-01T01:45:18;100401.44;;;18.57;100.00
60345;BME280;46188;52.324;8.032;2022-08-01T01:47:45;100398.69;;;18.58;100.00
60345;BME280;46188;52.324;8.032;2022-08-01T01:50:11;100401.34;;;18.60;100.00
60345;BME280;46188;52.324;8.032;2022-08-01T01:52:39;100396.91;;;18.60;100.00
60345;BME280;46188;52.324;8.032;2022-08-01T01:55:07;100399.59;;;18.59;100.00
60345;BME280;46188;52.324;8.032;2022-08-01T01:57:38;100394.25;;;18.59;100.00
60345;BME280;46188;52.324;8.032;2022-08-01T02:00:06;100391.66;;;18.56;100.00
60345;BME280;46188;52.324;8.032;2022-08-01T02:02:36;100394.28;;;18.57;100.00
60345;BME280;46188;52.324;8.032;2022-08-01T02:05:02;100395.13;;;18.59;100.00
60345;BME280;46188;52.324;8.032;2022-08-01T02:07:28;100398.59;;;18.63;100.00
60345;BME280;46188;52.324;8.032;2022-08-01T02:09:55;100402.22;;;18.60;100.00
60345;BME280;46188;52.324;8.032;2022-08-01T02:12:22;100396.09;;;18.57;100.00
60345;BME280;46188;52.324;8.032;2022-08-01T02:14:50;100392.50;;;18.58;100.00
60345;BME280;46188;52.324;8.032;2022-08-01T02:17:20;100388.97;;;18.56;100.00
60345;BME280;46188;52.324;8.032;2022-08-01T02:19:46;100397.00;;;18.56;100.00
60345;BME280;46188;52.324;8.032;2022-08-01T02:22:29;100386.34;;;18.54;100.00
60345;BME280;46188;52.324;8.032;2022-08-01T02:25:20;100386.41;;;18.51;100.00
60345;BME280;46188;52.324;8.032;2022-08-01T02:27:55;100388.22;;;18.51;100.00
60345;BME280;46188;52.324;8.032;2022-08-01T02:30:25;100390.81;;;18.54;100.00
60345;BME280;46188;52.324;8.032;2022-08-01T02:33:03;100390.84;;;18.52;100.00
60345;BME280;46188;52.324;8.032;2022-08-01T02:35:32;100397.91;;;18.55;100.00
60345;BME280;46188;52.324;8.032;2022-08-01T02:38:01;100392.56;;;18.55;100.00
60345;BME280;46188;52.324;8.032;2022-08-01T02:40:31;100392.56;;;18.55;100.00
60345;BME280;46188;52.324;8.032;2022-08-01T02:42:59;100386.34;;;18.54;100.00
60345;BME280;46188;52.324;8.032;2022-08-01T02:45:26;100393.56;;;18.51;100.00
60345;BME280;46188;52.324;8.032;2022-08-01T02:47:57;100394.38;;;18.53;100.00
60345;BME280;46188;52.324;8.032;2022-08-01T02:50:26;100392.56;;;18.55;100.00
60345;BME280;46188;52.324;8.032;2022-08-01T02:52:54;100395.22;;;18.55;100.00
60345;BME280;46188;52.324;8.032;2022-08-01T02:55:20;100389.88;;;18.55;100.00
60345;BME280;46188;52.324;8.032;2022-08-01T02:57:49;100403.31;;;18.52;100.00
60345;BME280;46188;52.324;8.032;2022-08-01T03:00:16;100401.56;;;18.51;100.00
60345;BME280;46188;52.324;8.032;2022-08-01T03:02:43;100403.41;;;18.49;100.00
60345;BME280;46188;52.324;8.032;2022-08-01T03:05:11;100410.50;;;18.48;100.00
60345;BME280;46188;52.324;8.032;2022-08-01T03:07:38;100413.19;;;18.47;100.00
60345;BME280;46188;52.324;8.032;2022-08-01T03:10:05;100411.44;;;18.47;100.00
60345;BME280;46188;52.324;8.032;2022-08-01T03:12:33;100409.66;;;18.46;100.00
60345;BME280;46188;52.324;8.032;2022-08-01T03:15:00;100415.00;;;18.46;100.00
60345;BME280;46188;52.324;8.032;2022-08-01T03:17:28;100424.78;;;18.47;100.00
60345;BME280;46188;52.324;8.032;2022-08-01T03:19:55;100412.34;;;18.46;100.00
60345;BME280;46188;52.324;8.032;2022-08-01T03:22:24;100415.94;;;18.43;100.00
60345;BME280;46188;52.324;8.032;2022-08-01T03:24:52;100426.63;;;18.43;100.00
60345;BME280;46188;52.324;8.032;2022-08-01T03:27:23;100430.22;;;18.42;100.00
60345;BME280;46188;52.324;8.032;2022-08-01T03:29:51;100417.72;;;18.44;100.00
60345;BME280;46188;52.324;8.032;2022-08-01T03:32:18;100423.03;;;18.44;100.00
60345;BME280;46188;52.324;8.032;2022-08-01T03:34:44;100421.28;;;18.43;100.00
60345;BME280;46188;52.324;8.032;2022-08-01T03:37:36;100435.56;;;18.42;100.00
60345;BME280;46188;52.324;8.032;2022-08-01T03:42:50;100427.56;;;18.42;100.00
60345;BME280;46188;52.324;8.032;2022-08-01T03:45:22;100429.34;;;18.42;100.00
60345;BME280;46188;52.324;8.032;2022-08-01T03:47:52;100422.22;;;18.42;100.00
60345;BME280;46188;52.324;8.032;2022-08-01T03:50:22;100426.63;;;18.43;100.00
60345;BME280;46188;52.324;8.032;2022-08-01T03:52:51;100420.41;;;18.43;100.00
60345;BME280;46188;52.324;8.032;2022-08-01T03:55:18;100419.56;;;18.41;100.00
60345;BME280;46188;52.324;8.032;2022-08-01T03:57:47;100417.84;;;18.38;100.00
60345;BME280;46188;52.324;8.032;2022-08-01T04:00:14;100433.97;;;18.34;100.00
60345;BME280;46188;52.324;8.032;2022-08-01T04:02:45;100441.06;;;18.33;100.00
60345;BME280;46188;52.324;8.032;2022-08-01T04:05:11;100440.19;;;18.34;100.00
60345;BME280;46188;52.324;8.032;2022-08-01T04:07:37;100433.06;;;18.33;100.00
60345;BME280;46188;52.324;8.032;2022-08-01T04:10:05;100433.91;;;18.35;100.00
60345;BME280;46188;52.324;8.032;2022-08-01T04:12:31;100442.78;;;18.37;100.00
60345;BME280;46188;52.324;8.032;2022-08-01T04:14:57;100443.69;;;18.36;100.00
60345;BME280;46188;52.324;8.032;2022-08-01T04:17:23;100452.56;;;18.37;100.00
60345;BME280;46188;52.324;8.032;2022-08-01T04:19:50;100445.50;;;18.36;100.00
60345;BME280;46188;52.324;8.032;2022-08-01T04:22:15;100451.72;;;18.35;100.00
60345;BME280;46188;52.324;8.032;2022-08-01T04:24:46;100459.72;;;18.35;100.00
60345;BME280;46188;52.324;8.032;2022-08-01T04:27:19;100448.16;;;18.36;100.00
60345;BME280;46188;52.324;8.032;2022-08-01T04:29:48;100449.03;;;18.36;100.00
60345;BME280;46188;52.324;8.032;2022-08-01T04:32:16;100450.75;;;18.39;100.00
60345;BME280;46188;52.324;8.032;2022-08-01T04:34:44;100460.44;;;18.43;100.00
60345;BME280;46188;52.324;8.032;2022-08-01T04:37:12;100466.63;;;18.45;100.00
60345;BME280;46188;52.324;8.032;2022-08-01T04:39:42;100470.22;;;18.44;100.00
60345;BME280;46188;52.324;8.032;2022-08-01T04:42:09;100468.41;;;18.44;100.00
60345;BME280;46188;52.324;8.032;2022-08-01T04:44:36;100473.72;;;18.46;100.00
60345;BME280;46188;52.324;8.032;2022-08-01T04:47:03;100472.00;;;18.43;100.00
60345;BME280;46188;52.324;8.032;2022-08-01T04:49:31;100471.97;;;18.45;100.00
60345;BME280;46188;52.324;8.032;2022-08-01T04:51:57;100472.88;;;18.46;100.00
60345;BME280;46188;52.324;8.032;2022-08-01T04:54:33;100482.63;;;18.45;100.00
60345;BME280;46188;52.324;8.032;2022-08-01T04:57:02;100479.13;;;18.43;100.00
60345;BME280;46188;52.324;8.032;2022-08-01T04:59:28;100481.81;;;18.41;100.00
60345;BME280;46188;52.324;8.032;2022-08-01T05:02:16;100480.09;;;18.40;100.00
60345;BME280;46188;52.324;8.032;2022-08-01T05:04:42;100483.59;;;18.42;100.00
60345;BME280;46188;52.324;8.032;2022-08-01T05:07:09;100483.59;;;18.42;100.00
60345;BME280;46188;52.324;8.032;2022-08-01T05:09:36;100481.78;;;18.44;100.00
60345;BME280;46188;52.324;8.032;2022-08-01T05:12:03;100480.94;;;18.42;100.00
60345;BME280;46188;52.324;8.032;2022-08-01T05:14:29;100482.72;;;18.42;100.00
60345;BME280;46188;52.324;8.032;2022-08-01T05:16:59;100490.75;;;18.40;100.00
60345;BME280;46188;52.324;8.032;2022-08-01T05:19:25;100491.66;;;18.39;100.00
60345;BME280;46188;52.324;8.032;2022-08-01T05:21:50;100491.63;;;18.41;100.00
60345;BME280;46188;52.324;8.032;2022-08-01T05:24:17;100493.31;;;18.45;100.00
60345;BME280;46188;52.324;8.032;2022-08-01T05:26:42;100487.97;;;18.45;100.00
60345;BME280;46188;52.324;8.032;2022-08-01T05:29:08;100497.72;;;18.48;100.00
60345;BME280;46188;52.324;8.032;2022-08-01T05:31:33;100488.81;;;18.49;100.00
60345;BME280;46188;52.324;8.032;2022-08-01T05:34:02;100503.06;;;18.48;100.00
60345;BME280;46188;52.324;8.032;2022-08-01T05:36:28;100511.16;;;18.43;100.00
60345;BME280;46188;52.324;8.032;2022-08-01T05:38:54;100510.41;;;18.36;100.00
60345;BME280;46188;52.324;8.032;2022-08-01T05:41:20;100505.94;;;18.37;100.00
60345;BME280;46188;52.324;8.032;2022-08-01T05:43:45;100509.47;;;18.39;100.00
60345;BME280;46188;52.324;8.032;2022-08-01T05:46:11;100512.03;;;18.43;100.00
60345;BME280;46188;52.324;8.032;2022-08-01T05:48:36;100514.81;;;18.39;100.00
60345;BME280;46188;52.324;8.032;2022-08-01T05:51:02;100514.78;;;18.40;100.00
60345;BME280;46188;52.324;8.032;2022-08-01T05:53:28;100513.03;;;18.39;100.00
60345;BME280;46188;52.324;8.032;2022-08-01T05:55:54;100515.69;;;18.39;100.00
60345;BME280;46188;52.324;8.032;2022-08-01T05:58:20;100524.53;;;18.41;100.00
60345;BME280;46188;52.324;8.032;2022-08-01T06:00:45;100525.44;;;18.42;100.00
60345;BME280;46188;52.324;8.032;2022-08-01T06:03:11;100522.78;;;18.40;100.00
60345;BME280;46188;52.324;8.032;2022-08-01T06:05:37;100530.69;;;18.45;100.00
60345;BME280;46188;52.324;8.032;2022-08-01T06:08:03;100528.88;;;18.47;100.00
60345;BME280;46188;52.324;8.032;2022-08-01T06:10:29;100535.94;;;18.50;100.00
60345;BME280;46188;52.324;8.032;2022-08-01T06:12:54;100533.25;;;18.50;100.00
60345;BME280;46188;52.324;8.032;2022-08-01T06:15:20;100521.69;;;18.51;100.00
60345;BME280;46188;52.324;8.032;2022-08-01T06:17:46;100530.56;;;18.51;100.00
60345;BME280;46188;52.324;8.032;2022-08-01T06:20:11;100530.50;;;18.54;100.00
60345;BME280;46188;52.324;8.032;2022-08-01T06:22:37;100532.25;;;18.57;100.00
60345;BME280;46188;52.324;8.032;2022-08-01T06:25:03;100531.25;;;18.61;100.00
60345;BME280;46188;52.324;8.032;2022-08-01T06:27:29;100541.88;;;18.64;100.00
60345;BME280;46188;52.324;8.032;2022-08-01T06:29:54;100545.38;;;18.66;100.00
60345;BME280;46188;52.324;8.032;2022-08-01T06:32:20;100542.69;;;18.68;100.00
60345;BME280;46188;52.324;8.032;2022-08-01T06:34:50;100548.81;;;18.71;100.00
60345;BME280;46188;52.324;8.032;2022-08-01T06:37:15;100539.91;;;18.72;100.00
60345;BME280;46188;52.324;8.032;2022-08-01T06:39:41;100548.78;;;18.74;100.00
60345;BME280;46188;52.324;8.032;2022-08-01T06:42:07;100547.91;;;18.74;100.00
60345;BME280;46188;52.324;8.032;2022-08-01T06:44:32;100546.97;;;18.75;100.00
60345;BME280;46188;52.324;8.032;2022-08-01T06:46:58;100546.03;;;18.77;100.00
60345;BME280;46188;52.324;8.032;2022-08-01T06:49:24;100551.41;;;18.76;100.00
60345;BME280;46188;52.324;8.032;2022-08-01T06:51:50;100557.66;;;18.75;100.00
60345;BME280;46188;52.324;8.032;2022-08-01T06:54:15;100557.78;;;18.70;100.00
60345;BME280;46188;52.324;8.032;2022-08-01T06:56:42;100558.72;;;18.66;100.00
60345;BME280;46188;52.324;8.032;2022-08-01T06:59:08;100566.78;;;18.65;100.00
60345;BME280;46188;52.324;8.032;2022-08-01T07:01:34;100558.72;;;18.66;100.00
60345;BME280;46188;52.324;8.032;2022-08-01T07:03:59;100557.88;;;18.66;100.00
60345;BME280;46188;52.324;8.032;2022-08-01T07:06:25;100554.34;;;18.63;100.00
60345;BME280;46188;52.324;8.032;2022-08-01T07:08:52;100565.09;;;18.60;100.00
60345;BME280;46188;52.324;8.032;2022-08-01T07:11:18;100570.41;;;18.62;100.00
60345;BME280;46188;52.324;8.032;2022-08-01T07:13:44;100552.63;;;18.61;100.00
60345;BME280;46188;52.324;8.032;2022-08-01T07:16:14;100562.44;;;18.60;100.00
60345;BME280;46188;52.324;8.032;2022-08-01T07:18:40;100563.19;;;18.67;100.00
60345;BME280;46188;52.324;8.032;2022-08-01T07:21:06;100560.53;;;18.66;100.00
60345;BME280;46188;52.324;8.032;2022-08-01T07:23:32;100563.97;;;18.71;100.00
60345;BME280;46188;52.324;8.032;2022-08-01T07:25:57;100558.59;;;18.74;100.00
60345;BME280;46188;52.324;8.032;2022-08-01T07:28:24;100564.78;;;18.74;100.00
60345;BME280;46188;52.324;8.032;2022-08-01T07:30:49;100561.28;;;18.72;100.00
60345;BME280;46188;52.324;8.032;2022-08-01T07:33:15;100566.50;;;18.78;100.00
60345;BME280;46188;52.324;8.032;2022-08-01T07:35:40;100568.25;;;18.79;100.00
60345;BME280;46188;52.324;8.032;2022-08-01T07:38:06;100565.56;;;18.79;100.00
60345;BME280;46188;52.324;8.032;2022-08-01T07:40:33;100567.28;;;18.85;100.00
60345;BME280;46188;52.324;8.032;2022-08-01T07:42:58;100576.06;;;18.90;100.00
60345;BME280;46188;52.324;8.032;2022-08-01T07:45:24;100580.53;;;18.88;100.00
60345;BME280;46188;52.324;8.032;2022-08-01T07:47:49;100586.69;;;18.93;100.00
60345;BME280;46188;52.324;8.032;2022-08-01T07:50:15;100587.44;;;19.00;100.00
60345;BME280;46188;52.324;8.032;2022-08-01T07:52:42;100586.34;;;19.09;100.00
60345;BME280;46188;52.324;8.032;2022-08-01T07:55:08;100584.41;;;19.15;100.00
60345;BME280;46188;52.324;8.032;2022-08-01T07:57:34;100587.63;;;19.31;100.00
60345;BME280;46188;52.324;8.032;2022-08-01T08:00:00;100584.72;;;19.41;100.00
60345;BME280;46188;52.324;8.032;2022-08-01T08:02:25;100592.84;;;19.36;100.00
60345;BME280;46188;52.324;8.032;2022-08-01T08:04:51;100591.78;;;19.43;100.00
60345;BME280;46188;52.324;8.032;2022-08-01T08:07:16;100595.25;;;19.48;100.00
60345;BME280;46188;52.324;8.032;2022-08-01T08:09:42;100598.56;;;19.58;100.00
60345;BME280;46188;52.324;8.032;2022-08-01T08:12:07;100607.53;;;19.55;100.00
60345;BME280;46188;52.324;8.032;2022-08-01T08:14:33;100610.25;;;19.54;100.00
60345;BME280;46188;52.324;8.032;2022-08-01T08:16:59;100607.56;;;19.54;100.00
60345;BME280;46188;52.324;8.032;2022-08-01T08:19:24;100604.81;;;19.57;100.00
60345;BME280;46188;52.324;8.032;2022-08-01T08:21:49;100600.34;;;19.58;100.00
60345;BME280;46188;52.324;8.032;2022-08-01T08:24:15;100604.00;;;19.55;100.00
60345;BME280;46188;52.324;8.032;2022-08-01T08:26:55;100605.63;;;19.61;100.00
60345;BME280;46188;52.324;8.032;2022-08-01T08:29:23;100601.72;;;19.74;100.00
60345;BME280;46188;52.324;8.032;2022-08-01T08:31:49;100597.91;;;19.86;100.00
60345;BME280;46188;52.324;8.032;2022-08-01T08:34:15;100609.31;;;19.92;99.51
60345;BME280;46188;52.324;8.032;2022-08-01T08:36:40;100614.28;;;20.08;97.58
60345;BME280;46188;52.324;8.032;2022-08-01T08:39:06;100614.22;;;20.11;96.42
60345;BME280;46188;52.324;8.032;2022-08-01T08:41:33;100615.13;;;20.10;94.57
60345;BME280;46188;52.324;8.032;2022-08-01T08:44:09;100619.56;;;20.11;95.44
60345;BME280;46188;52.324;8.032;2022-08-01T08:46:48;100624.84;;;20.14;96.01
60345;BME280;46188;52.324;8.032;2022-08-01T08:49:26;100618.72;;;20.42;96.63
60345;BME280;46188;52.324;8.032;2022-08-01T08:51:53;100624.44;;;20.62;95.25
60345;BME280;46188;52.324;8.032;2022-08-01T08:54:24;100626.91;;;20.70;93.30
60345;BME280;46188;52.324;8.032;2022-08-01T08:56:51;100632.47;;;20.62;92.72
60345;BME280;46188;52.324;8.032;2022-08-01T08:59:18;100627.41;;;20.52;91.66
60345;BME280;46188;52.324;8.032;2022-08-01T09:01:44;100631.09;;;20.48;92.11
60345;BME280;46188;52.324;8.032;2022-08-01T09:04:10;100633.56;;;20.54;91.48
60345;BME280;46188;52.324;8.032;2022-08-01T09:06:37;100639.38;;;20.71;91.97
60345;BME280;46188;52.324;8.032;2022-08-01T09:09:04;100645.38;;;20.81;91.12
60345;BME280;46188;52.324;8.032;2022-08-01T09:11:29;100645.66;;;20.70;89.60
60345;BME280;46188;52.324;8.032;2022-08-01T09:14:11;100641.28;;;20.68;89.08
60345;BME280;46188;52.324;8.032;2022-08-01T09:16:41;100646.03;;;20.56;89.25
60345;BME280;46188;52.324;8.032;2022-08-01T09:19:18;100648.84;;;20.50;90.27
60345;BME280;46188;52.324;8.032;2022-08-01T09:22:02;100661.56;;;20.42;90.71
60345;BME280;46188;52.324;8.032;2022-08-01T09:24:29;100658.22;;;20.34;91.53
60345;BME280;46188;52.324;8.032;2022-08-01T09:26:56;100657.38;;;20.32;90.99
60345;BME280;46188;52.324;8.032;2022-08-01T09:29:24;100663.63;;;20.32;91.45
60345;BME280;46188;52.324;8.032;2022-08-01T09:31:49;100660.88;;;20.35;90.38
60345;BME280;46188;52.324;8.032;2022-08-01T09:34:16;100669.84;;;20.34;91.11
60345;BME280;46188;52.324;8.032;2022-08-01T09:36:50;100676.97;;;20.34;90.60
60345;BME280;46188;52.324;8.032;2022-08-01T09:39:18;100674.28;;;20.34;90.68
60345;BME280;46188;52.324;8.032;2022-08-01T09:41:45;100676.09;;;20.33;90.27
60345;BME280;46188;52.324;8.032;2022-08-01T09:44:10;100672.44;;;20.37;90.14
60345;BME280;46188;52.324;8.032;2022-08-01T09:46:48;100679.00;;;20.58;90.69
60345;BME280;46188;52.324;8.032;2022-08-01T09:49:14;100669.66;;;20.75;88.71
60345;BME280;46188;52.324;8.032;2022-08-01T09:51:51;100679.59;;;21.02;89.90
60345;BME280;46188;52.324;8.032;2022-08-01T09:54:28;100681.31;;;21.05;87.46
60345;BME280;46188;52.324;8.032;2022-08-01T09:57:07;100682.59;;;20.90;87.32
60345;BME280;46188;52.324;8.032;2022-08-01T09:59:43;100684.66;;;20.82;88.29
60345;BME280;46188;52.324;8.032;2022-08-01T10:02:10;100689.84;;;20.87;88.77
60345;BME280;46188;52.324;8.032;2022-08-01T10:04:46;100687.22;;;20.85;89.17
60345;BME280;46188;52.324;8.032;2022-08-01T10:07:11;100683.69;;;20.83;87.89
60345;BME280;46188;52.324;8.032;2022-08-01T10:09:39;100682.75;;;20.86;87.86
60345;BME280;46188;52.324;8.032;2022-08-01T10:12:04;100685.81;;;21.03;87.03
60345;BME280;46188;52.324;8.032;2022-08-01T10:14:31;100688.31;;;21.09;85.44
60345;BME280;46188;52.324;8.032;2022-08-01T10:16:58;100691.03;;;21.08;86.83
60345;BME280;46188;52.324;8.032;2022-08-01T10:19:26;100687.53;;;21.06;86.12
60345;BME280;46188;52.324;8.032;2022-08-01T10:21:53;100691.03;;;21.08;82.11
60345;BME280;46188;52.324;8.032;2022-08-01T10:24:20;100690.78;;;21.17;82.93
60345;BME280;46188;52.324;8.032;2022-08-01T10:26:52;100687.00;;;21.24;80.76
60345;BME280;46188;52.324;8.032;2022-08-01T10:29:20;100693.91;;;21.31;78.60
60345;BME280;46188;52.324;8.032;2022-08-01T10:31:46;100695.56;;;21.37;79.97
60345;BME280;46188;52.324;8.032;2022-08-01T10:34:15;100698.94;;;21.44;80.48
60345;BME280;46188;52.324;8.032;2022-08-01T10:36:44;100703.94;;;21.56;79.66
60345;BME280;46188;52.324;8.032;2022-08-01T10:39:11;100705.66;;;21.59;78.60
60345;BME280;46188;52.324;8.032;2022-08-01T10:41:38;100696.84;;;21.55;75.95
60345;BME280;46188;52.324;8.032;2022-08-01T10:44:06;100698.03;;;21.73;73.60
60345;BME280;46188;52.324;8.032;2022-08-01T10:46:37;100700.44;;;21.82;76.31
60345;BME280;46188;52.324;8.032;2022-08-01T10:49:10;100702.16;;;21.85;76.72
60345;BME280;46188;52.324;8.032;2022-08-01T10:51:41;100705.03;;;21.79;75.60
60345;BME280;46188;52.324;8.032;2022-08-01T10:54:08;100704.31;;;21.73;75.07
60345;BME280;46188;52.324;8.032;2022-08-01T10:56:46;100704.34;;;21.72;75.09
60345;BME280;46188;52.324;8.032;2022-08-01T10:59:21;100700.25;;;21.60;72.72
60345;BME280;46188;52.324;8.032;2022-08-01T11:01:58;100702.28;;;21.52;72.15
60345;BME280;46188;52.324;8.032;2022-08-01T11:05:30;100697.78;;;21.52;76.35
60345;BME280;46188;52.324;8.032;2022-08-01T11:07:48;100695.84;;;21.58;75.63
60345;BME280;46188;52.324;8.032;2022-08-01T11:12:59;100691.34;;;21.58;76.27
60345;BME280;46188;52.324;8.032;2022-08-01T11:15:27;100699.69;;;21.49;74.55
60345;BME280;46188;52.324;8.032;2022-08-01T11:17:54;100696.84;;;21.55;73.84
60345;BME280;46188;52.324;8.032;2022-08-01T11:20:24;100700.34;;;21.57;73.39
60345;BME280;46188;52.324;8.032;2022-08-01T11:38:45;100706.44;;;21.62;74.93
60345;BME280;46188;52.324;8.032;2022-08-01T11:41:11;100700.84;;;21.70;75.09
60345;BME280;46188;52.324;8.032;2022-08-01T11:44:00;100705.16;;;21.74;74.50
60345;BME280;46188;52.324;8.032;2022-08-01T11:54:33;100707.53;;;21.85;74.69
60345;BME280;46188;52.324;8.032;2022-08-01T11:57:02;100704.53;;;21.94;74.26
60345;BME280;46188;52.324;8.032;2022-08-01T11:59:28;100711.66;;;21.95;74.19
60345;BME280;46188;52.324;8.032;2022-08-01T12:01:54;100715.25;;;21.94;72.00
60345;BME280;46188;52.324;8.032;2022-08-01T12:04:19;100706.63;;;21.84;72.88
60345;BME280;46188;52.324;8.032;2022-08-01T12:06:45;100707.91;;;21.72;74.43
60345;BME280;46188;52.324;8.032;2022-08-01T12:09:15;100711.44;;;21.73;73.81
60345;BME280;46188;52.324;8.032;2022-08-01T12:11:41;100707.94;;;21.71;74.08
60345;BME280;46188;52.324;8.032;2022-08-01T12:14:06;100707.34;;;21.61;72.77
60345;BME280;46188;52.324;8.032;2022-08-01T12:16:32;100709.50;;;21.50;72.62
60345;BME280;46188;52.324;8.032;2022-08-01T12:18:58;100712.34;;;21.44;72.84
60345;BME280;46188;52.324;8.032;2022-08-01T12:21:23;100709.63;;;21.45;73.73
60345;BME280;46188;52.324;8.032;2022-08-01T12:24:02;100711.44;;;21.43;73.40
60345;BME280;46188;52.324;8.032;2022-08-01T12:26:41;100710.38;;;21.50;73.42
60345;BME280;46188;52.324;8.032;2022-08-01T12:29:07;100713.09;;;21.49;72.40
60345;BME280;46188;52.324;8.032;2022-08-01T12:31:33;100714.94;;;21.47;73.76
60345;BME280;46188;52.324;8.032;2022-08-01T12:34:25;100716.66;;;21.49;69.80
60345;BME280;46188;52.324;8.032;2022-08-01T12:36:55;100723.84;;;21.49;71.15
60345;BME280;46188;52.324;8.032;2022-08-01T12:39:21;100721.97;;;21.51;71.96
60345;BME280;46188;52.324;8.032;2022-08-01T12:41:47;100720.75;;;21.61;70.21
60345;BME280;46188;52.324;8.032;2022-08-01T12:44:13;100726.50;;;21.79;71.12
60345;BME280;46188;52.324;8.032;2022-08-01T12:46:40;100722.50;;;21.92;69.14
60345;BME280;46188;52.324;8.032;2022-08-01T12:49:06;100724.94;;;22.00;69.95
60345;BME280;46188;52.324;8.032;2022-08-01T12:51:32;100724.72;;;22.06;70.78
60345;BME280;46188;52.324;8.032;2022-08-01T12:53:59;100719.41;;;22.04;69.34
60345;BME280;46188;52.324;8.032;2022-08-01T12:56:34;100728.13;;;22.11;69.61
60345;BME280;46188;52.324;8.032;2022-08-01T12:58:59;100727.94;;;22.17;70.23
60345;BME280;46188;52.324;8.032;2022-08-01T13:01:26;100732.34;;;22.20;69.84
60345;BME280;46188;52.324;8.032;2022-08-01T13:04:02;100724.91;;;22.28;67.24
60345;BME280;46188;52.324;8.032;2022-08-01T13:06:31;100727.25;;;22.39;68.53
60345;BME280;46188;52.324;8.032;2022-08-01T13:09:08;100723.63;;;22.40;69.04
60345;BME280;46188;52.324;8.032;2022-08-01T13:11:34;100726.47;;;22.35;66.43
60345;BME280;46188;52.324;8.032;2022-08-01T13:13:59;100713.88;;;22.37;65.57
60345;BME280;46188;52.324;8.032;2022-08-01T13:16:25;100722.09;;;22.33;63.96
60345;BME280;46188;52.324;8.032;2022-08-01T13:18:55;100718.16;;;22.16;65.18
60345;BME280;46188;52.324;8.032;2022-08-01T13:21:26;100726.38;;;22.10;64.63
60345;BME280;46188;52.324;8.032;2022-08-01T13:24:06;100723.84;;;22.05;67.08
60345;BME280;46188;52.324;8.032;2022-08-01T13:27:02;100726.63;;;22.02;65.89